sensor_id;sensor_type;location;lat;lon;timestamp;pressure;altitude;pressure_sealevel;temperature;humidity
55424;BME280;41294;42.666;23.350;2023-07-31T00:01:56;94569.97;;;23.23;77.44
55424;BME280;41294;42.666;23.350;2023-07-31T00:04:22;94569.81;;;23.21;76.73
55424;BME280;41294;42.666;23.350;2023-07-31T00:06:47;94564.38;;;23.13;77.33
55424;BME280;41294;42.666;23.350;2023-07-31T00:09:13;94562.22;;;23.12;77.84
55424;BME280;41294;42.666;23.350;2023-07-31T00:11:38;94577.47;;;23.17;77.80
55424;BME280;41294;42.666;23.350;2023-07-31T00:14:03;94577.25;;;23.15;77.82
55424;BME280;41294;42.666;23.350;2023-07-31T00:16:29;94580.53;;;23.21;77.30
55424;BME280;41294;42.666;23.350;2023-07-31T00:18:54;94578.72;;;23.16;77.58
55424;BME280;41294;42.666;23.350;2023-07-31T00:21:20;94575.13;;;23.13;77.55
55424;BME280;41294;42.666;23.350;2023-07-31T00:23:45;94573.13;;;23.14;77.56
55424;BME280;41294;42.666;23.350;2023-07-31T00:26:10;94573.34;;;23.16;77.65
55424;BME280;41294;42.666;23.350;2023-07-31T00:28:36;94568.50;;;23.14;78.01
55424;BME280;41294;42.666;23.350;2023-07-31T00:31:01;94566.84;;;23.11;78.44
55424;BME280;41294;42.666;23.350;2023-07-31T00:33:29;94541.94;;;22.83;82.15
55424;BME280;41294;42.666;23.350;2023-07-31T00:35:55;94547.13;;;22.60;83.38
55424;BME280;41294;42.666;23.350;2023-07-31T00:38:20;94537.16;;;22.68;83.29
55424;BME280;41294;42.666;23.350;2023-07-31T00:40:45;94532.56;;;22.76;82.92
55424;BME280;41294;42.666;23.350;2023-07-31T00:43:11;94537.88;;;22.69;83.44
55424;BME280;41294;42.666;23.350;2023-07-31T00:45:36;94540.94;;;22.73;83.80
55424;BME280;41294;42.666;23.350;2023-07-31T00:48:02;94547.22;;;22.75;83.63
55424;BME280;41294;42.666;23.350;2023-07-31T00:50:28;94539.38;;;22.77;83.59
55424;BME280;41294;42.666;23.350;2023-07-31T00:52:53;94547.19;;;22.68;84.90
55424;BME280;41294;42.666;23.350;2023-07-31T00:55:19;94541.75;;;22.60;85.30
55424;BME280;41294;42.666;23.350;2023-07-31T00:57:47;94552.22;;;22.51;86.12
55424;BME280;41294;42.666;23.350;2023-07-31T01:00:13;94553.47;;;22.50;86.41
55424;BME280;41294;42.666;23.350;2023-07-31T01:02:38;94539.44;;;22.44;87.16
55424;BME280;41294;42.666;23.350;2023-07-31T01:05:04;94528.00;;;22.43;86.99
55424;BME280;41294;42.666;23.350;2023-07-31T01:07:56;94532.72;;;22.50;86.52
55424;BME280;41294;42.666;23.350;2023-07-31T01:10:36;94536.72;;;22.37;87.53
55424;BME280;41294;42.666;23.350;2023-07-31T01:13:05;94530.50;;;22.41;87.17
55424;BME280;41294;42.666;23.350;2023-07-31T01:15:31;94534.34;;;22.33;87.76
55424;BME280;41294;42.666;23.350;2023-07-31T01:17:56;94540.31;;;22.26;88.63
55424;BME280;41294;42.666;23.350;2023-07-31T01:20:23;94533.63;;;22.33;88.50
55424;BME280;41294;42.666;23.350;2023-07-31T01:23:03;94521.75;;;22.28;88.54
55424;BME280;41294;42.666;23.350;2023-07-31T01:28:20;94533.94;;;22.29;88.69
55424;BME280;41294;42.666;23.350;2023-07-31T01:30:50;94530.00;;;22.30;88.93
55424;BME280;41294;42.666;23.350;2023-07-31T01:33:16;94523.63;;;22.33;88.88
55424;BME280;41294;42.666;23.350;2023-07-31T01:35:44;94519.59;;;22.27;89.16
55424;BME280;41294;42.666;23.350;2023-07-31T01:38:10;94513.31;;;22.24;89.23
55424;BME280;41294;42.666;23.350;2023-07-31T01:40:36;94520.41;;;22.01;91.23
55424;BME280;41294;42.666;23.350;2023-07-31T01:43:01;94520.03;;;21.97;91.58
55424;BME280;41294;42.666;23.350;2023-07-31T01:45:27;94526.81;;;21.98;91.84
55424;BME280;41294;42.666;23.350;2023-07-31T01:47:52;94513.22;;;21.96;92.29
55424;BME280;41294;42.666;23.350;2023-07-31T01:50:18;94517.25;;;21.90;93.06
55424;BME280;41294;42.666;23.350;2023-07-31T01:52:43;94514.31;;;21.80;93.76
55424;BME280;41294;42.666;23.350;2023-07-31T01:55:08;94521.72;;;21.87;93.63
55424;BME280;41294;42.666;23.350;2023-07-31T01:57:34;94523.06;;;21.81;94.03
55424;BME280;41294;42.666;23.350;2023-07-31T01:59:59;94523.97;;;21.83;94.07
55424;BME280;41294;42.666;23.350;2023-07-31T02:02:25;94526.66;;;21.83;94.34
55424;BME280;41294;42.666;23.350;2023-07-31T02:04:50;94522.97;;;21.73;95.35
55424;BME280;41294;42.666;23.350;2023-07-31T02:07:15;94525.47;;;21.71;95.77
55424;BME280;41294;42.666;23.350;2023-07-31T02:09:41;94527.31;;;21.63;96.63
55424;BME280;41294;42.666;23.350;2023-07-31T02:12:06;94538.66;;;21.69;96.18
55424;BME280;41294;42.666;23.350;2023-07-31T02:14:34;94544.84;;;21.64;97.00
55424;BME280;41294;42.666;23.350;2023-07-31T02:16:59;94542.13;;;21.77;96.21
55424;BME280;41294;42.666;23.350;2023-07-31T02:19:25;94541.41;;;21.77;96.20
55424;BME280;41294;42.666;23.350;2023-07-31T02:21:50;94545.84;;;21.74;96.64
55424;BME280;41294;42.666;23.350;2023-07-31T02:24:16;94537.41;;;21.70;96.88
55424;BME280;41294;42.666;23.350;2023-07-31T02:26:41;94546.06;;;21.76;96.57
55424;BME280;41294;42.666;23.350;2023-07-31T02:29:08;94547.50;;;21.77;96.58
55424;BME280;41294;42.666;23.350;2023-07-31T02:31:33;94538.81;;;21.84;96.21
55424;BME280;41294;42.666;23.350;2023-07-31T02:33:59;94549.28;;;21.62;97.66
55424;BME280;41294;42.666;23.350;2023-07-31T02:36:24;94538.44;;;21.67;97.49
55424;BME280;41294;42.666;23.350;2023-07-31T02:38:50;94537.38;;;21.83;96.82
55424;BME280;41294;42.666;23.350;2023-07-31T02:41:15;94532.63;;;21.89;96.27
55424;BME280;41294;42.666;23.350;2023-07-31T02:43:40;94542.31;;;21.92;95.77
55424;BME280;41294;42.666;23.350;2023-07-31T02:46:06;94538.59;;;21.95;95.81
55424;BME280;41294;42.666;23.350;2023-07-31T02:48:31;94540.25;;;21.85;96.30
55424;BME280;41294;42.666;23.350;2023-07-31T02:50:57;94547.72;;;21.79;96.80
55424;BME280;41294;42.666;23.350;2023-07-31T02:53:22;94549.34;;;21.82;96.47
55424;BME280;41294;42.666;23.350;2023-07-31T02:55:48;94550.75;;;21.96;95.76
55424;BME280;41294;42.666;23.350;2023-07-31T02:58:13;94549.91;;;22.01;94.82
55424;BME280;41294;42.666;23.350;2023-07-31T03:00:43;94556.13;;;21.96;95.17
55424;BME280;41294;42.666;23.350;2023-07-31T03:03:09;94564.28;;;21.91;95.69
55424;BME280;41294;42.666;23.350;2023-07-31T03:05:34;94558.59;;;21.94;95.20
55424;BME280;41294;42.666;23.350;2023-07-31T03:07:59;94565.78;;;21.99;94.95
55424;BME280;41294;42.666;23.350;2023-07-31T03:10:25;94566.19;;;22.03;94.44
55424;BME280;41294;42.666;23.350;2023-07-31T03:12:50;94567.22;;;22.00;94.67
55424;BME280;41294;42.666;23.350;2023-07-31T03:15:16;94573.81;;;22.12;93.91
55424;BME280;41294;42.666;23.350;2023-07-31T03:17:41;94570.91;;;22.10;93.81
55424;BME280;41294;42.666;23.350;2023-07-31T03:20:07;94569.88;;;22.13;93.30
55424;BME280;41294;42.666;23.350;2023-07-31T03:22:33;94573.16;;;22.19;93.54
55424;BME280;41294;42.666;23.350;2023-07-31T03:25:00;94578.72;;;22.21;93.35
55424;BME280;41294;42.666;23.350;2023-07-31T03:27:26;94572.13;;;22.22;93.59
55424;BME280;41294;42.666;23.350;2023-07-31T03:29:51;94569.44;;;22.22;93.59
55424;BME280;41294;42.666;23.350;2023-07-31T03:32:17;94583.28;;;22.13;94.20
55424;BME280;41294;42.666;23.350;2023-07-31T03:34:42;94578.13;;;22.15;94.58
55424;BME280;41294;42.666;23.350;2023-07-31T03:37:08;94581.00;;;22.17;93.99
55424;BME280;41294;42.666;23.350;2023-07-31T03:39:35;94579.97;;;22.20;94.12
55424;BME280;41294;42.666;23.350;2023-07-31T03:42:00;94577.28;;;22.20;93.79
55424;BME280;41294;42.666;23.350;2023-07-31T03:44:26;94581.41;;;22.21;93.67
55424;BME280;41294;42.666;23.350;2023-07-31T03:46:51;94588.59;;;22.26;93.09
55424;BME280;41294;42.666;23.350;2023-07-31T03:49:16;94579.97;;;22.20;93.13
55424;BME280;41294;42.666;23.350;2023-07-31T03:51:42;94581.41;;;22.21;92.87
55424;BME280;41294;42.666;23.350;2023-07-31T03:54:07;94586.56;;;22.32;91.88
55424;BME280;41294;42.666;23.350;2023-07-31T03:56:33;94586.94;;;22.36;91.79
55424;BME280;41294;42.666;23.350;2023-07-31T03:58:59;94593.06;;;22.37;91.57
55424;BME280;41294;42.666;23.350;2023-07-31T04:01:24;94585.19;;;22.38;91.68
55424;BME280;41294;42.666;23.350;2023-07-31T04:03:49;94601.44;;;22.33;91.36
55424;BME280;41294;42.666;23.350;2023-07-31T04:06:15;94600.38;;;22.36;91.66
55424;BME280;41294;42.666;23.350;2023-07-31T04:08:43;94603.50;;;22.47;90.99
55424;BME280;41294;42.666;23.350;2023-07-31T04:11:09;94595.78;;;22.44;91.30
55424;BME280;41294;42.666;23.350;2023-07-31T04:13:34;94602.41;;;22.43;91.40
55424;BME280;41294;42.666;23.350;2023-07-31T04:16:00;94605.22;;;22.38;91.17
55424;BME280;41294;42.666;23.350;2023-07-31T04:18:25;94610.13;;;22.46;90.63
55424;BME280;41294;42.666;23.350;2023-07-31T04:20:51;94610.81;;;22.27;91.50
55424;BME280;41294;42.666;23.350;2023-07-31T04:23:16;94605.72;;;22.36;91.04
55424;BME280;41294;42.666;23.350;2023-07-31T04:25:42;94611.22;;;22.31;90.83
55424;BME280;41294;42.666;23.350;2023-07-31T04:28:07;94604.53;;;22.24;91.59
55424;BME280;41294;42.666;23.350;2023-07-31T04:30:33;94613.41;;;22.32;91.29
55424;BME280;41294;42.666;23.350;2023-07-31T04:32:58;94613.53;;;22.47;90.13
55424;BME280;41294;42.666;23.350;2023-07-31T04:35:24;94615.38;;;22.52;89.75
55424;BME280;41294;42.666;23.350;2023-07-31T04:37:49;94615.38;;;22.52;89.43
55424;BME280;41294;42.666;23.350;2023-07-31T04:40:15;94616.81;;;22.53;88.68
55424;BME280;41294;42.666;23.350;2023-07-31T04:42:41;94612.31;;;22.68;88.31
55424;BME280;41294;42.666;23.350;2023-07-31T04:45:08;94612.84;;;22.67;88.31
55424;BME280;41294;42.666;23.350;2023-07-31T04:47:34;94613.69;;;22.62;88.14
55424;BME280;41294;42.666;23.350;2023-07-31T04:49:59;94599.88;;;22.58;88.22
55424;BME280;41294;42.666;23.350;2023-07-31T04:52:25;94611.44;;;22.53;88.32
55424;BME280;41294;42.666;23.350;2023-07-31T04:54:50;94607.59;;;22.61;88.05
55424;BME280;41294;42.666;23.350;2023-07-31T04:59:53;94610.03;;;22.93;86.29
55424;BME280;41294;42.666;23.350;2023-07-31T05:12:39;94608.81;;;24.78;76.53
55424;BME280;41294;42.666;23.350;2023-07-31T05:15:04;94614.22;;;25.07;74.73
55424;BME280;41294;42.666;23.350;2023-07-31T05:17:30;94604.16;;;25.15;74.04
55424;BME280;41294;42.666;23.350;2023-07-31T05:19:55;94610.25;;;25.53;72.96
55424;BME280;41294;42.666;23.350;2023-07-31T05:22:21;94612.56;;;25.64;71.74
55424;BME280;41294;42.666;23.350;2023-07-31T05:24:46;94595.47;;;25.84;71.07
55424;BME280;41294;42.666;23.350;2023-07-31T05:27:12;94597.03;;;26.34;68.63
55424;BME280;41294;42.666;23.350;2023-07-31T05:29:40;94600.94;;;26.48;67.69
55424;BME280;41294;42.666;23.350;2023-07-31T05:32:06;94593.59;;;27.21;65.13
55424;BME280;41294;42.666;23.350;2023-07-31T05:34:31;94606.28;;;27.36;65.18
55424;BME280;41294;42.666;23.350;2023-07-31T05:36:57;94597.59;;;27.37;64.04
55424;BME280;41294;42.666;23.350;2023-07-31T05:39:22;94597.56;;;26.96;65.08
55424;BME280;41294;42.666;23.350;2023-07-31T05:41:48;94599.84;;;27.07;64.63
55424;BME280;41294;42.666;23.350;2023-07-31T05:44:13;94593.16;;;27.32;63.99
55424;BME280;41294;42.666;23.350;2023-07-31T05:46:38;94597.78;;;26.90;64.79
55424;BME280;41294;42.666;23.350;2023-07-31T05:49:04;94596.13;;;26.70;64.33
55424;BME280;41294;42.666;23.350;2023-07-31T05:51:29;94594.94;;;26.25;65.51
55424;BME280;41294;42.666;23.350;2023-07-31T05:53:54;94606.25;;;25.84;66.71
55424;BME280;41294;42.666;23.350;2023-07-31T05:56:20;94603.78;;;25.41;68.23
55424;BME280;41294;42.666;23.350;2023-07-31T05:58:45;94618.88;;;25.37;68.47
55424;BME280;41294;42.666;23.350;2023-07-31T06:01:11;94611.88;;;24.96;69.83
55424;BME280;41294;42.666;23.350;2023-07-31T06:03:36;94613.88;;;25.11;69.45
55424;BME280;41294;42.666;23.350;2023-07-31T06:06:01;94618.91;;;25.14;69.31
55424;BME280;41294;42.666;23.350;2023-07-31T06:08:27;94627.53;;;25.35;69.09
55424;BME280;41294;42.666;23.350;2023-07-31T06:10:52;94622.84;;;25.06;68.17
55424;BME280;41294;42.666;23.350;2023-07-31T06:13:18;94615.25;;;25.64;66.21
55424;BME280;41294;42.666;23.350;2023-07-31T06:15:43;94622.59;;;26.40;63.28
55424;BME280;41294;42.666;23.350;2023-07-31T06:18:08;94618.19;;;26.84;61.76
55424;BME280;41294;42.666;23.350;2023-07-31T06:20:34;94619.00;;;27.43;58.73
55424;BME280;41294;42.666;23.350;2023-07-31T06:23:00;94625.31;;;28.13;56.08
55424;BME280;41294;42.666;23.350;2023-07-31T06:25:25;94623.88;;;28.45;54.07
55424;BME280;41294;42.666;23.350;2023-07-31T06:27:51;94616.97;;;28.61;53.49
55424;BME280;41294;42.666;23.350;2023-07-31T06:30:16;94626.69;;;28.64;53.08
55424;BME280;41294;42.666;23.350;2023-07-31T06:32:41;94615.94;;;27.97;54.65
55424;BME280;41294;42.666;23.350;2023-07-31T06:35:08;94605.50;;;27.59;55.94
55424;BME280;41294;42.666;23.350;2023-07-31T06:37:33;94617.50;;;27.49;56.01
55424;BME280;41294;42.666;23.350;2023-07-31T06:39:58;94621.03;;;27.59;56.14
55424;BME280;41294;42.666;23.350;2023-07-31T06:42:24;94623.38;;;27.38;57.29
55424;BME280;41294;42.666;23.350;2023-07-31T06:44:49;94615.50;;;27.33;57.57
55424;BME280;41294;42.666;23.350;2023-07-31T06:47:15;94615.31;;;28.06;56.48
55424;BME280;41294;42.666;23.350;2023-07-31T06:49:40;94612.28;;;28.02;55.24
55424;BME280;41294;42.666;23.350;2023-07-31T06:52:06;94623.19;;;27.77;56.03
55424;BME280;41294;42.666;23.350;2023-07-31T06:54:31;94626.94;;;27.82;56.49
55424;BME280;41294;42.666;23.350;2023-07-31T06:56:57;94634.88;;;28.47;54.84
55424;BME280;41294;42.666;23.350;2023-07-31T06:59:22;94628.53;;;28.19;54.94
55424;BME280;41294;42.666;23.350;2023-07-31T07:01:48;94631.38;;;28.64;53.24
55424;BME280;41294;42.666;23.350;2023-07-31T07:04:13;94633.84;;;28.69;52.94
55424;BME280;41294;42.666;23.350;2023-07-31T07:06:39;94627.72;;;28.95;51.95
55424;BME280;41294;42.666;23.350;2023-07-31T07:09:04;94619.91;;;28.99;51.74
55424;BME280;41294;42.666;23.350;2023-07-31T07:11:30;94622.94;;;29.58;50.92
55424;BME280;41294;42.666;23.350;2023-07-31T07:13:55;94620.50;;;29.52;50.78
55424;BME280;41294;42.666;23.350;2023-07-31T07:16:20;94628.34;;;29.67;49.98
55424;BME280;41294;42.666;23.350;2023-07-31T07:18:46;94627.09;;;29.78;49.57
55424;BME280;41294;42.666;23.350;2023-07-31T07:21:11;94614.13;;;30.14;48.97
55424;BME280;41294;42.666;23.350;2023-07-31T07:23:41;94619.28;;;30.01;48.65
55424;BME280;41294;42.666;23.350;2023-07-31T07:26:06;94616.78;;;30.42;47.48
55424;BME280;41294;42.666;23.350;2023-07-31T07:28:32;94623.41;;;30.39;47.32
55424;BME280;41294;42.666;23.350;2023-07-31T07:30:57;94624.84;;;30.21;47.16
55424;BME280;41294;42.666;23.350;2023-07-31T07:33:23;94621.22;;;30.38;47.45
55424;BME280;41294;42.666;23.350;2023-07-31T07:35:48;94616.44;;;30.76;46.68
55424;BME280;41294;42.666;23.350;2023-07-31T07:38:14;94617.22;;;31.07;45.99
55424;BME280;41294;42.666;23.350;2023-07-31T07:40:44;94627.72;;;31.01;45.43
55424;BME280;41294;42.666;23.350;2023-07-31T07:43:10;94619.13;;;31.25;45.09
55424;BME280;41294;42.666;23.350;2023-07-31T07:45:35;94629.38;;;31.46;44.61
55424;BME280;41294;42.666;23.350;2023-07-31T07:48:00;94628.63;;;31.76;43.43
55424;BME280;41294;42.666;23.350;2023-07-31T07:50:26;94625.00;;;31.62;43.28
55424;BME280;41294;42.666;23.350;2023-07-31T07:52:51;94624.81;;;31.08;45.48
55424;BME280;41294;42.666;23.350;2023-07-31T07:55:16;94618.19;;;31.42;44.75
55424;BME280;41294;42.666;23.350;2023-07-31T07:57:42;94631.44;;;31.57;43.74
55424;BME280;41294;42.666;23.350;2023-07-31T08:00:09;94632.78;;;32.30;42.66
55424;BME280;41294;42.666;23.350;2023-07-31T08:02:35;94621.66;;;32.58;40.43
55424;BME280;41294;42.666;23.350;2023-07-31T08:05:01;94630.59;;;32.38;40.46
55424;BME280;41294;42.666;23.350;2023-07-31T08:07:26;94622.31;;;31.94;40.89
55424;BME280;41294;42.666;23.350;2023-07-31T08:09:52;94623.72;;;31.95;41.36
55424;BME280;41294;42.666;23.350;2023-07-31T08:12:17;94623.03;;;31.94;41.30
55424;BME280;41294;42.666;23.350;2023-07-31T08:14:43;94632.06;;;32.50;40.66
55424;BME280;41294;42.666;23.350;2023-07-31T08:17:08;94627.34;;;32.30;41.02
55424;BME280;41294;42.666;23.350;2023-07-31T08:19:34;94627.63;;;32.13;41.64
55424;BME280;41294;42.666;23.350;2023-07-31T08:21:59;94628.59;;;32.17;42.00
55424;BME280;41294;42.666;23.350;2023-07-31T08:24:25;94630.03;;;31.77;41.83
55424;BME280;41294;42.666;23.350;2023-07-31T08:26:50;94629.31;;;31.55;42.28
55424;BME280;41294;42.666;23.350;2023-07-31T08:29:15;94629.78;;;31.12;43.05
55424;BME280;41294;42.666;23.350;2023-07-31T08:31:41;94626.97;;;31.10;42.78
55424;BME280;41294;42.666;23.350;2023-07-31T08:34:06;94624.66;;;31.88;42.21
55424;BME280;41294;42.666;23.350;2023-07-31T08:36:32;94629.53;;;32.10;41.49
55424;BME280;41294;42.666;23.350;2023-07-31T08:38:57;94625.16;;;32.49;41.38
55424;BME280;41294;42.666;23.350;2023-07-31T08:41:22;94625.72;;;32.36;40.91
55424;BME280;41294;42.666;23.350;2023-07-31T08:43:49;94620.75;;;32.44;40.52
55424;BME280;41294;42.666;23.350;2023-07-31T08:46:17;94617.66;;;32.38;40.25
55424;BME280;41294;42.666;23.350;2023-07-31T08:48:42;94622.63;;;32.74;39.45
55424;BME280;41294;42.666;23.350;2023-07-31T08:51:09;94624.84;;;33.10;39.47
55424;BME280;41294;42.666;23.350;2023-07-31T08:53:35;94612.91;;;32.71;39.69
55424;BME280;41294;42.666;23.350;2023-07-31T08:56:01;94617.53;;;32.36;40.28
55424;BME280;41294;42.666;23.350;2023-07-31T08:58:32;94621.06;;;32.27;39.92
55424;BME280;41294;42.666;23.350;2023-07-31T09:01:01;94620.97;;;31.63;41.46
55424;BME280;41294;42.666;23.350;2023-07-31T09:03:28;94618.38;;;31.04;42.87
55424;BME280;41294;42.666;23.350;2023-07-31T09:05:58;94616.44;;;30.76;43.65
55424;BME280;41294;42.666;23.350;2023-07-31T09:08:26;94619.81;;;31.35;42.16
55424;BME280;41294;42.666;23.350;2023-07-31T09:10:59;94613.44;;;32.14;40.79
55424;BME280;41294;42.666;23.350;2023-07-31T09:13:24;94606.38;;;32.32;39.48
55424;BME280;41294;42.666;23.350;2023-07-31T09:15:50;94616.09;;;32.35;39.79
55424;BME280;41294;42.666;23.350;2023-07-31T09:18:15;94612.63;;;32.56;38.88
55424;BME280;41294;42.666;23.350;2023-07-31T09:20:44;94608.63;;;32.68;38.52
55424;BME280;41294;42.666;23.350;2023-07-31T09:23:13;94610.81;;;33.04;38.16
55424;BME280;41294;42.666;23.350;2023-07-31T09:25:41;94599.78;;;33.48;36.77
55424;BME280;41294;42.666;23.350;2023-07-31T09:28:10;94598.81;;;33.54;36.45
55424;BME280;41294;42.666;23.350;2023-07-31T09:30:49;94599.66;;;33.46;36.48
55424;BME280;41294;42.666;23.350;2023-07-31T09:33:15;94593.94;;;33.64;36.69
55424;BME280;41294;42.666;23.350;2023-07-31T09:35:41;94591.84;;;33.29;37.17
55424;BME280;41294;42.666;23.350;2023-07-31T09:38:10;94580.78;;;32.37;39.30
55424;BME280;41294;42.666;23.350;2023-07-31T09:40:39;94588.72;;;32.77;38.97
55424;BME280;41294;42.666;23.350;2023-07-31T09:43:09;94591.81;;;32.71;38.54
55424;BME280;41294;42.666;23.350;2023-07-31T09:45:38;94589.69;;;33.16;37.83
55424;BME280;41294;42.666;23.350;2023-07-31T09:48:07;94589.09;;;33.17;37.79
55424;BME280;41294;42.666;23.350;2023-07-31T09:50:37;94575.63;;;32.53;38.39
55424;BME280;41294;42.666;23.350;2023-07-31T09:53:03;94581.91;;;32.11;39.68
55424;BME280;41294;42.666;23.350;2023-07-31T09:55:29;94586.97;;;32.38;38.92
55424;BME280;41294;42.666;23.350;2023-07-31T09:57:56;94578.56;;;32.13;39.34
55424;BME280;41294;42.666;23.350;2023-07-31T10:00:23;94572.28;;;32.10;39.22
55424;BME280;41294;42.666;23.350;2023-07-31T10:02:50;94575.91;;;32.03;39.88
55424;BME280;41294;42.666;23.350;2023-07-31T10:05:16;94575.78;;;32.22;39.35
55424;BME280;41294;42.666;23.350;2023-07-31T10:07:46;94578.22;;;31.86;39.21
55424;BME280;41294;42.666;23.350;2023-07-31T10:10:15;94575.16;;;31.50;39.61
55424;BME280;41294;42.666;23.350;2023-07-31T10:12:41;94562.59;;;31.45;40.60
55424;BME280;41294;42.666;23.350;2023-07-31T10:15:09;94559.88;;;31.66;40.69
55424;BME280;41294;42.666;23.350;2023-07-31T10:17:35;94569.25;;;31.53;40.94
55424;BME280;41294;42.666;23.350;2023-07-31T10:20:01;94568.38;;;31.81;39.98
55424;BME280;41294;42.666;23.350;2023-07-31T10:22:30;94568.88;;;31.68;39.74
55424;BME280;41294;42.666;23.350;2023-07-31T10:24:58;94568.28;;;31.90;40.21
55424;BME280;41294;42.666;23.350;2023-07-31T10:27:24;94571.13;;;31.92;38.96
55424;BME280;41294;42.666;23.350;2023-07-31T10:29:51;94563.63;;;31.81;39.06
55424;BME280;41294;42.666;23.350;2023-07-31T10:32:17;94561.47;;;32.33;37.82
55424;BME280;41294;42.666;23.350;2023-07-31T10:34:43;94555.56;;;32.37;38.27
55424;BME280;41294;42.666;23.350;2023-07-31T10:37:44;94567.47;;;32.87;37.09
55424;BME280;41294;42.666;23.350;2023-07-31T10:42:47;94559.66;;;33.27;36.52
55424;BME280;41294;42.666;23.350;2023-07-31T10:45:14;94557.63;;;32.93;36.16
55424;BME280;41294;42.666;23.350;2023-07-31T10:47:44;94553.59;;;32.83;36.25
55424;BME280;41294;42.666;23.350;2023-07-31T10:50:21;94554.31;;;33.06;36.55
55424;BME280;41294;42.666;23.350;2023-07-31T10:52:50;94542.00;;;32.94;36.91
55424;BME280;41294;42.666;23.350;2023-07-31T10:55:23;94537.00;;;33.02;35.90
55424;BME280;41294;42.666;23.350;2023-07-31T10:57:50;94529.41;;;32.66;36.54
55424;BME280;41294;42.666;23.350;2023-07-31T11:00:29;94541.22;;;32.48;36.69
55424;BME280;41294;42.666;23.350;2023-07-31T11:03:02;94535.19;;;32.49;36.53
55424;BME280;41294;42.666;23.350;2023-07-31T11:06:20;94540.84;;;32.30;37.48
55424;BME280;41294;42.666;23.350;2023-07-31T11:08:46;94523.19;;;32.31;36.62
55424;BME280;41294;42.666;23.350;2023-07-31T11:11:17;94525.00;;;32.61;36.32
55424;BME280;41294;42.666;23.350;2023-07-31T11:13:53;94519.78;;;32.54;36.19
55424;BME280;41294;42.666;23.350;2023-07-31T11:16:21;94519.16;;;32.44;36.77
55424;BME280;41294;42.666;23.350;2023-07-31T11:18:47;94527.25;;;32.65;36.04
55424;BME280;41294;42.666;23.350;2023-07-31T11:21:21;94531.78;;;32.71;35.28
55424;BME280;41294;42.666;23.350;2023-07-31T11:23:55;94521.09;;;32.87;35.31
55424;BME280;41294;42.666;23.350;2023-07-31T11:26:23;94521.84;;;31.88;36.87
55424;BME280;41294;42.666;23.350;2023-07-31T11:28:50;94526.34;;;31.42;37.38
55424;BME280;41294;42.666;23.350;2023-07-31T11:31:16;94523.13;;;31.55;37.50
55424;BME280;41294;42.666;23.350;2023-07-31T11:33:42;94528.50;;;31.65;36.93
55424;BME280;41294;42.666;23.350;2023-07-31T11:36:14;94521.34;;;31.81;37.17
55424;BME280;41294;42.666;23.350;2023-07-31T11:38:40;94507.66;;;32.01;36.19
55424;BME280;41294;42.666;23.350;2023-07-31T11:41:06;94511.94;;;31.51;36.48
55424;BME280;41294;42.666;23.350;2023-07-31T11:43:31;94522.47;;;31.45;37.70
55424;BME280;41294;42.666;23.350;2023-07-31T11:46:00;94514.09;;;31.32;37.85
55424;BME280;41294;42.666;23.350;2023-07-31T11:48:31;94513.09;;;31.58;37.22
55424;BME280;41294;42.666;23.350;2023-07-31T11:51:00;94512.53;;;31.29;38.12
55424;BME280;41294;42.666;23.350;2023-07-31T11:56:07;94506.97;;;31.48;38.37
55424;BME280;41294;42.666;23.350;2023-07-31T11:58:34;94511.84;;;31.28;38.82
55424;BME280;41294;42.666;23.350;2023-07-31T12:01:02;94519.16;;;31.47;38.73
55424;BME280;41294;42.666;23.350;2023-07-31T12:03:28;94509.88;;;31.82;37.05
55424;BME280;41294;42.666;23.350;2023-07-31T12:05:54;94508.94;;;31.57;37.37
55424;BME280;41294;42.666;23.350;2023-07-31T12:08:23;94503.03;;;31.39;37.51
55424;BME280;41294;42.666;23.350;2023-07-31T12:10:53;94505.09;;;31.50;37.57
55424;BME280;41294;42.666;23.350;2023-07-31T12:13:23;94493.00;;;31.63;36.75
55424;BME280;41294;42.666;23.350;2023-07-31T12:15:54;94499.78;;;31.73;37.80
55424;BME280;41294;42.666;23.350;2023-07-31T12:18:20;94501.03;;;31.61;38.31
55424;BME280;41294;42.666;23.350;2023-07-31T12:20:48;94492.19;;;31.51;37.82
55424;BME280;41294;42.666;23.350;2023-07-31T12:23:16;94484.47;;;31.68;37.21
55424;BME280;41294;42.666;23.350;2023-07-31T12:25:42;94492.25;;;31.62;37.59
55424;BME280;41294;42.666;23.350;2023-07-31T12:28:08;94482.38;;;31.78;38.01
55424;BME280;41294;42.666;23.350;2023-07-31T12:30:38;94480.72;;;31.73;38.81
55424;BME280;41294;42.666;23.350;2023-07-31T12:33:12;94486.69;;;31.39;39.51
55424;BME280;41294;42.666;23.350;2023-07-31T12:35:41;94488.31;;;31.54;39.80
55424;BME280;41294;42.666;23.350;2023-07-31T12:38:06;94488.53;;;31.04;38.97
55424;BME280;41294;42.666;23.350;2023-07-31T12:40:32;94479.38;;;31.21;38.17
55424;BME280;41294;42.666;23.350;2023-07-31T12:43:02;94484.91;;;31.32;38.47
55424;BME280;41294;42.666;23.350;2023-07-31T12:45:30;94486.69;;;31.39;37.72
55424;BME280;41294;42.666;23.350;2023-07-31T12:47:57;94478.03;;;31.31;37.53
55424;BME280;41294;42.666;23.350;2023-07-31T12:50:23;94479.78;;;31.06;37.88
55424;BME280;41294;42.666;23.350;2023-07-31T12:52:49;94472.06;;;31.02;37.65
55424;BME280;41294;42.666;23.350;2023-07-31T12:55:14;94469.69;;;30.88;38.13
55424;BME280;41294;42.666;23.350;2023-07-31T12:57:40;94464.50;;;30.92;38.03
55424;BME280;41294;42.666;23.350;2023-07-31T13:00:07;94467.53;;;30.86;38.06
55424;BME280;41294;42.666;23.350;2023-07-31T13:02:33;94458.06;;;31.17;38.61
55424;BME280;41294;42.666;23.350;2023-07-31T13:04:58;94457.81;;;31.13;38.30
55424;BME280;41294;42.666;23.350;2023-07-31T13:07:23;94449.06;;;31.15;38.85
55424;BME280;41294;42.666;23.350;2023-07-31T13:09:49;94449.88;;;30.96;38.44